createdAt,value
2022-09-01T00:00:16.646Z,0.00
2022-09-01T00:01:16.627Z,0.00
2022-09-01T00:02:16.671Z,0.00
2022-09-01T00:03:16.572Z,0.00
2022-09-01T00:04:16.618Z,0.00
2022-09-01T00:05:16.565Z,0.00
2022-09-01T00:06:16.531Z,0.00
2022-09-01T00:07:16.552Z,0.00
2022-09-01T00:08:18.376Z,0.00
2022-09-01T00:09:16.496Z,0.00
2022-09-01T00:10:16.508Z,0.00
2022-09-01T00:11:16.483Z,0.00
2022-09-01T00:12:16.470Z,0.00
2022-09-01T00:13:16.462Z,0.00
2022-09-01T00:14:30.626Z,0.00
2022-09-01T00:15:17.508Z,0.00
2022-09-01T00:16:16.491Z,0.00
2022-09-01T00:17:16.404Z,0.00
2022-09-01T00:18:16.525Z,0.00
2022-09-01T00:19:16.388Z,0.00
2022-09-01T00:20:20.313Z,0.00
2022-09-01T00:21:16.410Z,0.00
2022-09-01T00:22:16.382Z,0.00
2022-09-01T00:23:16.359Z,0.00
2022-09-01T00:24:16.351Z,0.00
2022-09-01T00:25:16.360Z,0.00
2022-09-01T00:26:16.384Z,0.00
2022-09-01T00:27:16.301Z,0.00
2022-09-01T00:28:16.334Z,0.00
2022-09-01T00:29:16.291Z,0.00
2022-09-01T00:30:16.278Z,0.00
2022-09-01T00:31:16.331Z,0.00
2022-09-01T00:32:16.266Z,0.00
2022-09-01T00:33:16.265Z,0.00
2022-09-01T00:34:16.221Z,0.00
2022-09-01T00:35:16.265Z,0.00
2022-09-01T00:36:16.282Z,0.00
2022-09-01T00:37:16.215Z,0.00
2022-09-01T00:38:16.270Z,0.00
2022-09-01T00:39:16.162Z,0.00
2022-09-01T00:40:16.249Z,0.00
2022-09-01T00:41:16.185Z,0.00
2022-09-01T00:42:16.146Z,0.00
2022-09-01T00:43:16.190Z,0.00
2022-09-01T00:44:16.110Z,0.00
2022-09-01T00:45:16.101Z,0.00
2022-09-01T00:46:18.315Z,0.00
2022-09-01T00:47:16.082Z,0.00
2022-09-01T00:48:16.211Z,0.00
2022-09-01T00:49:16.066Z,0.00
2022-09-01T00:50:16.052Z,0.00
2022-09-01T00:51:16.058Z,0.00
2022-09-01T00:52:16.049Z,0.00
2022-09-01T00:53:16.045Z,0.00
2022-09-01T00:54:16.046Z,0.00
2022-09-01T00:55:15.992Z,0.00
2022-09-01T00:56:16.013Z,0.00
2022-09-01T00:57:15.975Z,0.00
2022-09-01T00:58:19.580Z,0.00
2022-09-01T00:59:15.944Z,0.00
2022-09-01T01:00:15.936Z,0.00
2022-09-01T01:01:16.022Z,0.00
2022-09-01T01:02:16.037Z,0.00
2022-09-01T01:03:15.916Z,0.00
2022-09-01T01:04:15.922Z,0.00
2022-09-01T01:05:15.889Z,0.00
2022-09-01T01:06:15.879Z,0.00
2022-09-01T01:07:15.865Z,0.00
2022-09-01T01:08:15.926Z,0.00
2022-09-01T01:09:15.855Z,0.00
2022-09-01T01:10:15.832Z,0.00
2022-09-01T01:11:15.832Z,0.00
2022-09-01T01:12:15.811Z,0.00
2022-09-01T01:13:15.809Z,0.00
2022-09-01T01:14:15.822Z,0.00
2022-09-01T01:15:15.782Z,0.00
2022-09-01T01:16:15.838Z,0.00
2022-09-01T01:17:15.794Z,0.00
2022-09-01T01:18:22.867Z,0.00
2022-09-01T01:19:16.734Z,0.00
2022-09-01T01:20:15.722Z,0.00
2022-09-01T01:21:15.742Z,0.00
2022-09-01T01:22:15.728Z,0.00
2022-09-01T01:23:15.687Z,0.00
2022-09-01T01:24:15.676Z,0.00
2022-09-01T01:25:15.678Z,0.00
2022-09-01T01:26:15.680Z,0.00
2022-09-01T01:27:15.681Z,0.00
2022-09-01T01:28:15.660Z,0.00
2022-09-01T01:29:15.680Z,0.00
2022-09-01T01:30:15.616Z,0.00
2022-09-01T01:31:15.699Z,0.00
2022-09-01T01:32:15.591Z,0.00
2022-09-01T01:33:15.592Z,0.00
2022-09-01T01:34:15.576Z,0.00
2022-09-01T01:35:15.568Z,0.00
2022-09-01T01:36:15.580Z,0.00
2022-09-01T01:37:15.575Z,0.00
2022-09-01T01:38:15.534Z,0.00
2022-09-01T01:39:15.527Z,0.00
2022-09-01T01:40:15.708Z,0.00
2022-09-01T01:41:15.543Z,0.00
2022-09-01T01:42:15.507Z,0.00
2022-09-01T01:43:15.484Z,0.00
2022-09-01T01:44:15.477Z,0.00
2022-09-01T01:45:15.452Z,0.00
2022-09-01T01:46:15.551Z,0.00
2022-09-01T01:47:15.524Z,0.00
2022-09-01T01:48:15.426Z,0.00
2022-09-01T01:49:15.423Z,0.00
2022-09-01T01:50:15.452Z,0.00
2022-09-01T01:51:15.392Z,0.00
2022-09-01T01:52:15.394Z,0.00
2022-09-01T01:53:15.376Z,0.00
2022-09-01T01:54:15.361Z,0.00
2022-09-01T01:55:15.344Z,0.00
2022-09-01T01:56:15.374Z,0.00
2022-09-01T01:57:15.348Z,0.00
2022-09-01T01:58:15.315Z,0.00
2022-09-01T01:59:15.307Z,0.00
2022-09-01T02:00:15.310Z,0.00
2022-09-01T02:01:15.373Z,0.00
2022-09-01T02:02:15.353Z,0.00
2022-09-01T02:03:15.285Z,0.00
2022-09-01T02:04:15.260Z,0.00
2022-09-01T02:05:15.238Z,0.00
2022-09-01T02:06:15.282Z,0.00
2022-09-01T02:07:15.244Z,0.00
2022-09-01T02:08:15.204Z,0.00
2022-09-01T02:09:15.196Z,0.00
2022-09-01T02:10:15.181Z,0.00
2022-09-01T02:11:15.197Z,0.00
2022-09-01T02:12:16.056Z,0.00
2022-09-01T02:13:15.199Z,0.00
2022-09-01T02:14:15.159Z,0.00
2022-09-01T02:15:15.137Z,0.00
2022-09-01T02:16:15.200Z,0.00
2022-09-01T02:17:15.108Z,0.00
2022-09-01T02:18:15.136Z,0.00
2022-09-01T02:19:15.090Z,0.00
2022-09-01T02:20:15.100Z,0.00
2022-09-01T02:21:18.349Z,0.00
2022-09-01T02:22:15.078Z,0.00
2022-09-01T02:23:15.055Z,0.00
2022-09-01T02:24:15.098Z,0.00
2022-09-01T02:25:15.026Z,0.00
2022-09-01T02:26:16.866Z,0.00
2022-09-01T02:27:15.064Z,0.00
2022-09-01T02:28:15.008Z,0.00
2022-09-01T02:29:14.988Z,0.00
2022-09-01T02:30:14.994Z,0.00
2022-09-01T02:31:15.071Z,0.00
2022-09-01T02:32:14.952Z,0.00
2022-09-01T02:33:14.940Z,0.00
2022-09-01T02:34:14.990Z,0.00
2022-09-01T02:35:14.947Z,0.00
2022-09-01T02:36:14.922Z,0.00
2022-09-01T02:37:14.916Z,0.00
2022-09-01T02:38:14.899Z,0.00
2022-09-01T02:39:14.882Z,0.00
2022-09-01T02:40:14.903Z,0.00
2022-09-01T02:41:14.866Z,0.00
2022-09-01T02:42:14.895Z,0.00
2022-09-01T02:43:14.838Z,0.00
2022-09-01T02:44:14.845Z,0.00
2022-09-01T02:45:14.865Z,0.00
2022-09-01T02:46:14.975Z,0.00
2022-09-01T02:47:14.793Z,0.00
2022-09-01T02:48:14.792Z,0.00
2022-09-01T02:49:14.772Z,0.00
2022-09-01T02:50:14.810Z,0.00
2022-09-01T02:51:14.785Z,0.00
2022-09-01T02:52:14.766Z,0.00
2022-09-01T02:53:14.721Z,0.00
2022-09-01T02:54:14.745Z,0.00
2022-09-01T02:55:14.707Z,0.00
2022-09-01T02:56:14.694Z,0.00
2022-09-01T02:57:14.688Z,0.00
2022-09-01T02:58:14.688Z,0.00
2022-09-01T02:59:14.724Z,0.00
2022-09-01T03:00:14.661Z,0.00
2022-09-01T03:01:14.702Z,0.00
2022-09-01T03:02:14.659Z,0.00
2022-09-01T03:03:14.631Z,0.00
2022-09-01T03:04:14.627Z,0.00
2022-09-01T03:05:14.629Z,0.00
2022-09-01T03:06:14.580Z,0.00
2022-09-01T03:07:14.574Z,0.00
2022-09-01T03:08:14.571Z,0.00
2022-09-01T03:09:14.588Z,0.00
2022-09-01T03:10:14.526Z,0.00
2022-09-01T03:11:14.545Z,0.00
2022-09-01T03:12:14.544Z,0.00
2022-09-01T03:13:14.510Z,0.00
2022-09-01T03:14:14.556Z,0.00
2022-09-01T03:15:14.479Z,0.00
2022-09-01T03:16:14.644Z,0.00
2022-09-01T03:17:14.464Z,0.00
2022-09-01T03:18:14.502Z,0.00
2022-09-01T03:19:14.474Z,0.00
2022-09-01T03:20:14.482Z,0.00
2022-09-01T03:21:14.456Z,0.00
2022-09-01T03:22:14.441Z,0.00
2022-09-01T03:23:14.396Z,0.00
2022-09-01T03:24:14.429Z,0.00
2022-09-01T03:25:14.373Z,0.00
2022-09-01T03:26:14.419Z,0.00
2022-09-01T03:27:14.390Z,0.00
2022-09-01T03:28:14.354Z,0.00
2022-09-01T03:29:14.349Z,0.00
2022-09-01T03:30:14.332Z,0.00
2022-09-01T03:31:14.454Z,0.00
2022-09-01T03:32:14.355Z,0.00
2022-09-01T03:33:14.301Z,0.00
2022-09-01T03:34:14.277Z,0.00
2022-09-01T03:35:14.266Z,0.00
2022-09-01T03:36:15.454Z,0.00
2022-09-01T03:37:14.275Z,0.00
2022-09-01T03:38:14.229Z,0.00
2022-09-01T03:39:16.794Z,0.00
2022-09-01T03:40:14.301Z,0.00
2022-09-01T03:41:14.218Z,0.00
2022-09-01T03:42:14.213Z,0.00
2022-09-01T03:43:14.171Z,0.00
2022-09-01T03:44:14.219Z,0.00
2022-09-01T03:45:14.150Z,0.00
2022-09-01T03:46:14.248Z,0.00
2022-09-01T03:47:14.152Z,0.00
2022-09-01T03:48:14.143Z,0.00
2022-09-01T03:49:14.183Z,0.00
2022-09-01T03:50:14.105Z,0.00
2022-09-01T03:51:14.118Z,0.00
2022-09-01T03:52:14.089Z,0.00
2022-09-01T03:53:14.105Z,0.00
2022-09-01T03:54:14.084Z,0.00
2022-09-01T03:55:14.051Z,0.00
2022-09-01T03:56:14.147Z,0.00
2022-09-01T03:57:14.429Z,0.00
2022-09-01T03:58:14.023Z,0.00
2022-09-01T03:59:14.001Z,0.00
2022-09-01T04:00:14.008Z,0.00
2022-09-01T04:01:14.102Z,0.00
2022-09-01T04:02:14.051Z,0.00
2022-09-01T04:03:13.955Z,0.00
2022-09-01T04:04:14.081Z,0.00
2022-09-01T04:05:14.002Z,0.00
2022-09-01T04:06:14.020Z,0.00
2022-09-01T04:07:19.265Z,0.00
2022-09-01T04:08:14.918Z,0.00
2022-09-01T04:09:13.960Z,0.00
2022-09-01T04:10:13.918Z,0.00
2022-09-01T04:11:13.929Z,0.00
2022-09-01T04:12:13.884Z,0.00
2022-09-01T04:13:13.883Z,0.00
2022-09-01T04:14:13.913Z,4.00
2022-09-01T04:15:13.852Z,4.00
2022-09-01T04:16:13.883Z,0.00
2022-09-01T04:17:13.834Z,4.00
2022-09-01T04:18:13.821Z,4.00
2022-09-01T04:19:13.787Z,4.00
2022-09-01T04:20:13.770Z,4.00
2022-09-01T04:21:13.786Z,4.00
2022-09-01T04:22:13.801Z,8.00
2022-09-01T04:23:13.757Z,12.00
2022-09-01T04:24:13.755Z,12.00
2022-09-01T04:25:13.732Z,16.00
2022-09-01T04:26:13.725Z,20.00
2022-09-01T04:27:13.778Z,20.00
2022-09-01T04:28:13.712Z,28.00
2022-09-01T04:29:13.703Z,32.00
2022-09-01T04:30:13.676Z,36.00
2022-09-01T04:31:13.750Z,44.00
2022-09-01T04:32:13.657Z,52.00
2022-09-01T04:33:13.640Z,60.00
2022-09-01T04:34:13.652Z,72.00
2022-09-01T04:35:13.649Z,84.00
2022-09-01T04:36:13.620Z,100.00
2022-09-01T04:37:13.624Z,116.00
2022-09-01T04:38:13.653Z,132.00
2022-09-01T04:39:13.601Z,148.00
2022-09-01T04:40:13.660Z,168.00
2022-09-01T04:41:13.614Z,184.00
2022-09-01T04:42:13.544Z,200.00
2022-09-01T04:43:13.550Z,220.00
2022-09-01T04:44:13.569Z,240.00
2022-09-01T04:45:17.365Z,260.00
2022-09-01T04:46:14.596Z,300.00
2022-09-01T04:47:13.489Z,312.00
2022-09-01T04:48:13.501Z,340.00
2022-09-01T04:49:13.508Z,368.00
2022-09-01T04:50:13.454Z,396.00
2022-09-01T04:51:13.465Z,432.00
2022-09-01T04:52:13.478Z,480.00
2022-09-01T04:53:13.451Z,508.00
2022-09-01T04:54:13.414Z,548.00
2022-09-01T04:55:13.409Z,600.00
2022-09-01T04:56:13.425Z,648.00
2022-09-01T04:57:13.384Z,704.00
2022-09-01T04:58:13.397Z,768.00
2022-09-01T04:59:13.393Z,836.00
2022-09-01T05:00:13.341Z,904.00
2022-09-01T05:01:13.409Z,980.00
2022-09-01T05:02:13.388Z,1024.00
2022-09-01T05:03:13.356Z,1100.00
2022-09-01T05:04:13.313Z,1152.00
2022-09-01T05:05:13.289Z,1184.00
2022-09-01T05:06:13.289Z,1240.00
2022-09-01T05:07:13.281Z,1320.00
2022-09-01T05:08:13.245Z,1396.00
2022-09-01T05:09:14.292Z,1416.00
2022-09-01T05:10:13.225Z,1484.00
2022-09-01T05:11:13.289Z,1616.00
2022-09-01T05:12:15.982Z,1708.00
2022-09-01T05:13:13.216Z,1748.00
2022-09-01T05:14:13.196Z,1844.00
2022-09-01T05:15:13.173Z,1988.00
2022-09-01T05:16:13.580Z,2072.00
2022-09-01T05:17:13.163Z,2044.00
2022-09-01T05:18:13.143Z,2056.00
2022-09-01T05:19:13.138Z,2204.00
2022-09-01T05:20:13.166Z,2392.00
2022-09-01T05:21:13.148Z,2552.00
2022-09-01T05:22:13.099Z,2616.00
2022-09-01T05:23:13.101Z,2888.00
2022-09-01T05:24:13.082Z,3108.00
2022-09-01T05:25:13.097Z,3084.00
2022-09-01T05:26:13.086Z,3100.00
2022-09-01T05:27:13.066Z,3360.00
2022-09-01T05:28:13.181Z,3492.00
2022-09-01T05:29:13.005Z,3328.00
2022-09-01T05:30:13.037Z,3248.00
2022-09-01T05:31:13.114Z,3328.00
2022-09-01T05:32:13.057Z,3496.00
2022-09-01T05:33:12.975Z,3780.00
2022-09-01T05:34:13.786Z,3996.00
2022-09-01T05:35:12.976Z,4072.00
2022-09-01T05:36:12.934Z,4012.00
2022-09-01T05:37:13.057Z,4024.00
2022-09-01T05:38:12.967Z,4228.00
2022-09-01T05:39:12.931Z,4252.00
2022-09-01T05:40:12.976Z,4360.00
2022-09-01T05:41:12.894Z,4568.00
2022-09-01T05:42:12.898Z,4472.00
2022-09-01T05:43:12.969Z,4316.00
2022-09-01T05:44:12.852Z,4460.00
2022-09-01T05:45:12.860Z,4448.00
2022-09-01T05:46:12.973Z,4640.00
2022-09-01T05:47:14.770Z,4844.00
2022-09-01T05:48:13.811Z,5140.00
2022-09-01T05:49:12.847Z,5440.00
2022-09-01T05:50:15.411Z,5856.00
2022-09-01T05:51:33.524Z,5776.00
2022-09-01T05:52:14.045Z,5772.00
2022-09-01T05:53:12.851Z,5968.00
2022-09-01T05:54:12.752Z,6012.00
2022-09-01T05:55:12.736Z,6160.00
2022-09-01T05:56:12.945Z,6320.00
2022-09-01T05:57:33.149Z,6436.00
2022-09-01T05:58:13.805Z,6380.00
2022-09-01T05:59:28.361Z,6404.00
2022-09-01T06:00:13.708Z,6444.00
2022-09-01T06:01:12.686Z,6784.00
2022-09-01T06:02:12.788Z,6936.00
2022-09-01T06:03:12.932Z,7328.00
2022-09-01T06:04:12.639Z,8648.00
2022-09-01T06:05:12.655Z,8140.00
2022-09-01T06:06:12.656Z,7232.00
2022-09-01T06:07:15.717Z,8000.00
2022-09-01T06:08:12.952Z,9184.00
2022-09-01T06:09:12.584Z,8920.00
2022-09-01T06:10:12.577Z,8620.00
2022-09-01T06:11:12.579Z,9324.00
2022-09-01T06:12:12.577Z,9488.00
2022-09-01T06:13:12.567Z,9000.00
2022-09-01T06:14:12.550Z,9052.00
2022-09-01T06:15:12.555Z,8596.00
2022-09-01T06:16:12.679Z,8272.00
2022-09-01T06:17:13.565Z,8748.00
2022-09-01T06:18:12.495Z,9264.00
2022-09-01T06:19:12.482Z,8552.00
2022-09-01T06:20:12.460Z,8620.00
2022-09-01T06:21:12.461Z,9276.00
2022-09-01T06:22:12.597Z,9976.00
2022-09-01T06:23:12.531Z,10292.00
2022-09-01T06:24:12.460Z,10284.00
2022-09-01T06:25:12.507Z,10072.00
2022-09-01T06:26:12.646Z,9788.00
2022-09-01T06:27:12.382Z,10508.00
2022-09-01T06:28:12.371Z,11924.00
2022-09-01T06:29:12.365Z,11580.00
2022-09-01T06:30:12.389Z,10464.00
2022-09-01T06:31:12.404Z,10100.00
2022-09-01T06:32:12.393Z,10800.00
2022-09-01T06:33:12.456Z,12240.00
2022-09-01T06:34:12.408Z,12868.00
2022-09-01T06:35:12.920Z,13440.00
2022-09-01T06:36:12.304Z,14964.00
2022-09-01T06:37:12.286Z,15872.00
2022-09-01T06:38:12.274Z,14144.00
2022-09-01T06:39:12.285Z,10396.00
2022-09-01T06:40:12.315Z,12220.00
2022-09-01T06:41:12.275Z,13892.00
2022-09-01T06:42:12.327Z,14508.00
2022-09-01T06:43:13.338Z,14308.00
2022-09-01T06:44:14.641Z,13536.00
2022-09-01T06:45:12.194Z,12016.00
2022-09-01T06:46:12.268Z,11964.00
2022-09-01T06:47:12.174Z,12468.00
2022-09-01T06:48:12.186Z,12652.00
2022-09-01T06:49:12.214Z,13144.00
2022-09-01T06:50:12.259Z,13420.00
2022-09-01T06:51:17.097Z,12828.00
2022-09-01T06:52:13.197Z,12420.00
2022-09-01T06:54:14.735Z,11164.00
2022-09-01T06:55:12.073Z,10680.00
2022-09-01T06:56:12.063Z,9528.00
2022-09-01T06:58:14.007Z,9028.00
2022-09-01T06:59:12.044Z,9152.00
2022-09-01T07:00:12.194Z,9220.00
2022-09-01T07:01:12.367Z,9512.00
2022-09-01T07:02:17.228Z,9556.00
2022-09-01T07:03:13.104Z,8652.00
2022-09-01T07:04:13.382Z,7244.00
2022-09-01T07:05:58.863Z,6820.00
2022-09-01T07:06:59.079Z,7120.00
2022-09-01T07:08:13.000Z,12928.00
2022-09-01T07:09:20.181Z,12944.00
2022-09-01T07:12:07.139Z,23008.00
2022-09-01T07:12:28.373Z,12784.00
2022-09-01T07:13:12.902Z,13408.00
2022-09-01T07:14:15.666Z,12000.00
2022-09-01T07:17:28.144Z,15968.00
2022-09-01T07:18:14.223Z,20352.00
2022-09-01T07:19:12.335Z,21056.00
2022-09-01T07:20:27.607Z,13788.00
2022-09-01T07:22:35.845Z,16448.00
2022-09-01T07:23:12.776Z,19808.00
2022-09-01T07:24:11.813Z,20672.00
2022-09-01T07:25:12.750Z,21376.00
2022-09-01T07:26:11.771Z,24064.00
2022-09-01T07:27:11.798Z,25184.00
2022-09-01T07:28:25.436Z,29184.00
2022-09-01T07:29:12.733Z,31840.00
2022-09-01T07:30:11.701Z,30144.00
2022-09-01T07:35:12.649Z,9172.00
2022-09-01T07:36:27.975Z,8944.00
2022-09-01T07:42:59.234Z,12796.00
2022-09-01T07:43:12.987Z,8332.00
2022-09-01T07:44:11.593Z,8300.00
2022-09-01T07:45:27.861Z,8236.00
2022-09-01T07:47:20.557Z,8208.00
2022-09-01T07:48:36.055Z,8176.00
2022-09-01T07:50:37.029Z,8080.00
2022-09-01T07:52:12.475Z,8052.00
2022-09-01T07:53:11.601Z,8040.00
2022-09-01T07:54:11.778Z,8060.00
2022-09-01T07:55:11.595Z,8052.00
2022-09-01T07:56:11.433Z,8072.00
2022-09-01T07:57:11.421Z,8076.00
2022-09-01T07:58:11.397Z,8108.00
2022-09-01T07:59:15.367Z,8136.00
2022-09-01T08:00:11.385Z,8124.00
2022-09-01T08:01:11.430Z,8124.00
2022-09-01T08:02:11.596Z,8112.00
2022-09-01T08:03:11.547Z,8080.00
2022-09-01T08:04:13.007Z,8096.00
2022-09-01T08:05:11.321Z,8112.00
2022-09-01T08:06:11.349Z,8080.00
2022-09-01T08:07:15.442Z,8068.00
2022-09-01T08:08:18.840Z,8012.00
2022-09-01T08:09:17.302Z,7996.00
2022-09-01T08:10:12.277Z,8004.00
2022-09-01T08:11:11.344Z,7984.00
2022-09-01T08:12:11.597Z,7992.00
2022-09-01T08:13:15.248Z,7996.00
2022-09-01T08:14:11.226Z,8012.00
2022-09-01T08:15:41.187Z,8068.00
2022-09-01T08:16:19.521Z,8064.00
2022-09-01T08:18:14.354Z,8108.00
2022-09-01T08:19:18.363Z,8144.00
2022-09-01T08:20:14.085Z,8176.00
2022-09-01T08:21:13.036Z,8248.00
2022-09-01T08:22:12.996Z,8332.00
2022-09-01T08:23:11.137Z,8408.00
2022-09-01T08:24:11.122Z,8472.00
2022-09-01T08:25:11.116Z,8516.00
2022-09-01T08:26:11.103Z,8600.00
2022-09-01T08:27:11.087Z,8660.00
2022-09-01T08:28:11.083Z,8720.00
2022-09-01T08:29:11.171Z,8740.00
2022-09-01T08:30:14.273Z,8816.00
2022-09-01T08:31:11.544Z,8860.00
2022-09-01T08:32:11.032Z,8884.00
2022-09-01T08:33:11.098Z,8904.00
2022-09-01T08:34:11.017Z,8896.00
2022-09-01T08:35:11.094Z,8896.00
2022-09-01T08:36:10.983Z,8920.00
2022-09-01T08:37:10.997Z,9000.00
2022-09-01T08:38:11.522Z,9112.00
2022-09-01T08:39:12.029Z,9264.00
2022-09-01T08:40:11.163Z,9508.00
2022-09-01T08:41:10.969Z,10004.00
2022-09-01T08:42:10.937Z,11100.00
2022-09-01T08:43:19.506Z,14264.00
2022-09-01T08:44:11.911Z,27456.00
2022-09-01T08:45:10.941Z,40960.00
2022-09-01T08:46:10.946Z,35904.00
2022-09-01T08:47:13.627Z,23008.00
2022-09-01T08:49:25.369Z,48096.00
2022-09-01T08:50:11.907Z,53184.00
2022-09-01T08:51:15.089Z,55552.00
2022-09-01T08:52:11.834Z,54048.00
2022-09-01T08:53:10.845Z,46464.00
2022-09-01T08:54:10.827Z,42912.00
2022-09-01T08:55:10.838Z,49408.00
2022-09-01T08:56:11.045Z,45280.00
2022-09-01T08:57:11.083Z,34688.00
2022-09-01T08:58:10.774Z,24864.00
2022-09-01T08:59:10.751Z,19360.00
2022-09-01T09:00:10.802Z,18464.00
2022-09-01T09:01:10.837Z,21088.00
2022-09-01T09:02:10.726Z,15732.00
2022-09-01T09:03:10.802Z,11856.00
2022-09-01T09:04:10.718Z,11200.00
2022-09-01T09:05:15.797Z,10972.00
2022-09-01T09:06:10.842Z,10920.00
2022-09-01T09:07:10.673Z,10964.00
2022-09-01T09:08:10.654Z,11084.00
2022-09-01T09:09:10.665Z,11324.00
2022-09-01T09:10:10.731Z,11692.00
2022-09-01T09:11:10.612Z,12912.00
2022-09-01T09:12:10.651Z,12572.00
2022-09-01T09:13:11.003Z,17760.00
2022-09-01T09:14:10.916Z,14120.00
2022-09-01T09:15:10.793Z,14476.00
2022-09-01T09:16:10.645Z,23520.00
2022-09-01T09:17:10.565Z,23040.00
2022-09-01T09:18:34.438Z,17984.00
2022-09-01T09:19:10.587Z,34208.00
2022-09-01T09:20:10.565Z,42336.00
2022-09-01T09:21:10.496Z,28896.00
2022-09-01T09:22:11.503Z,30784.00
2022-09-01T09:23:11.330Z,41024.00
2022-09-01T09:24:10.673Z,58272.00
2022-09-01T09:25:10.485Z,70112.00
2022-09-01T09:26:10.932Z,74144.00
2022-09-01T09:27:11.197Z,74880.00
2022-09-01T09:28:10.485Z,78368.00
2022-09-01T09:29:10.421Z,82112.00
2022-09-01T09:30:11.724Z,80096.00
2022-09-01T09:31:12.043Z,78944.00
2022-09-01T09:32:44.369Z,77504.00
2022-09-01T09:34:11.387Z,79136.00
2022-09-01T09:35:10.377Z,80992.00
2022-09-01T09:36:10.345Z,81888.00
2022-09-01T09:37:10.376Z,62880.00
2022-09-01T09:38:10.355Z,33920.00
2022-09-01T09:39:10.312Z,54432.00
2022-09-01T09:40:12.899Z,78688.00
2022-09-01T09:41:17.316Z,83776.00
2022-09-01T09:42:11.391Z,83392.00
2022-09-01T09:43:10.295Z,81504.00
2022-09-01T09:44:11.465Z,79424.00
2022-09-01T09:45:10.273Z,78496.00
2022-09-01T09:46:23.347Z,77088.00
2022-09-01T09:47:33.575Z,76928.00
2022-09-01T09:48:11.281Z,77120.00
2022-09-01T09:49:10.265Z,76032.00
2022-09-01T09:50:10.628Z,73856.00
2022-09-01T09:51:10.366Z,77664.00
2022-09-01T09:52:10.320Z,79200.00
2022-09-01T09:53:10.175Z,76544.00
2022-09-01T09:54:10.186Z,78336.00
2022-09-01T09:55:10.188Z,81632.00
2022-09-01T09:56:10.147Z,80576.00
2022-09-01T09:57:10.132Z,60608.00
2022-09-01T09:58:12.547Z,34720.00
2022-09-01T09:59:10.831Z,62944.00
2022-09-01T10:00:11.269Z,80000.00
2022-09-01T10:01:10.130Z,81248.00
2022-09-01T10:02:10.077Z,79584.00
2022-09-01T10:03:11.251Z,77696.00
2022-09-01T10:04:10.169Z,80416.00
2022-09-01T10:05:10.081Z,82496.00
2022-09-01T10:06:10.059Z,82432.00
2022-09-01T10:07:10.169Z,82496.00
2022-09-01T10:08:12.264Z,82400.00
2022-09-01T10:09:10.035Z,82016.00
2022-09-01T10:10:09.994Z,54240.00
2022-09-01T10:11:10.002Z,42400.00
2022-09-01T10:12:10.026Z,76544.00
2022-09-01T10:13:09.962Z,89408.00
2022-09-01T10:14:10.053Z,90528.00
2022-09-01T10:15:12.698Z,90208.00
2022-09-01T10:16:11.312Z,90112.00
2022-09-01T10:17:13.125Z,90656.00
2022-09-01T10:18:20.033Z,88384.00
2022-09-01T10:19:12.800Z,62560.00
2022-09-01T10:20:11.353Z,44384.00
2022-09-01T10:21:09.905Z,35392.00
2022-09-01T10:22:09.907Z,10752.00
2022-09-01T10:23:15.332Z,11540.00
2022-09-01T10:24:21.002Z,15124.00
2022-09-01T10:25:10.961Z,19264.00
2022-09-01T10:26:10.246Z,90048.00
2022-09-01T10:27:13.936Z,82624.00
2022-09-01T10:28:10.802Z,54656.00
2022-09-01T10:29:12.111Z,51488.00
2022-09-01T10:30:14.504Z,84544.00
2022-09-01T10:31:11.137Z,88640.00
2022-09-01T10:32:31.300Z,87520.00
2022-09-01T10:33:19.276Z,91328.00
2022-09-01T10:34:11.730Z,93312.00
2022-09-01T10:35:09.892Z,91872.00
2022-09-01T10:36:09.738Z,85568.00
2022-09-01T10:37:11.211Z,54336.00
2022-09-01T10:38:17.469Z,67136.00
2022-09-01T10:39:10.689Z,94848.00
2022-09-01T10:40:09.751Z,94080.00
2022-09-01T10:41:14.154Z,91424.00
2022-09-01T10:42:12.981Z,88896.00
2022-09-01T10:43:13.021Z,67104.00
2022-09-01T10:44:10.297Z,50048.00
2022-09-01T10:45:09.651Z,79328.00
2022-09-01T10:46:15.279Z,83616.00
2022-09-01T10:47:13.805Z,80256.00
2022-09-01T10:48:13.292Z,77696.00
2022-09-01T10:49:09.768Z,50080.00
2022-09-01T10:50:09.750Z,61184.00
2022-09-01T10:51:09.780Z,82016.00
2022-09-01T10:52:14.015Z,82048.00
2022-09-01T10:53:09.883Z,65952.00
2022-09-01T10:54:09.547Z,46944.00
2022-09-01T10:55:09.566Z,69536.00
2022-09-01T10:56:23.455Z,80352.00
2022-09-01T10:57:12.195Z,61024.00
2022-09-01T10:59:30.891Z,37856.00
2022-09-01T10:59:44.277Z,43264.00
2022-09-01T11:00:34.795Z,30592.00
2022-09-01T11:01:11.374Z,27520.00
2022-09-01T11:02:27.674Z,47648.00
2022-09-01T11:04:10.561Z,83168.00
2022-09-01T11:05:09.525Z,84768.00
2022-09-01T11:06:13.130Z,83168.00
2022-09-01T11:07:12.769Z,81792.00
2022-09-01T11:08:16.467Z,79328.00
2022-09-01T11:09:10.431Z,81376.00
2022-09-01T11:10:31.618Z,79200.00
2022-09-01T11:11:10.898Z,83424.00
2022-09-01T11:12:09.378Z,86976.00
2022-09-01T11:13:09.352Z,89152.00
2022-09-01T11:14:09.330Z,88224.00
2022-09-01T11:15:09.325Z,88832.00
2022-09-01T11:16:10.170Z,86528.00
2022-09-01T11:17:09.769Z,88736.00
2022-09-01T11:18:10.329Z,92064.00
2022-09-01T11:19:16.053Z,82624.00
2022-09-01T11:20:10.710Z,59072.00
2022-09-01T11:21:09.279Z,98016.00
2022-09-01T11:22:09.255Z,99616.00
2022-09-01T11:23:09.240Z,104224.00
2022-09-01T11:24:09.252Z,101024.00
2022-09-01T11:25:12.004Z,96736.00
2022-09-01T11:26:24.719Z,100544.00
2022-09-01T11:27:10.738Z,101056.00
2022-09-01T11:28:09.204Z,98176.00
2022-09-01T11:29:09.182Z,85184.00
2022-09-01T11:30:09.207Z,86336.00
2022-09-01T11:31:09.198Z,37696.00
2022-09-01T11:32:09.227Z,84576.00
2022-09-01T11:33:09.165Z,85920.00
2022-09-01T11:34:09.128Z,84352.00
2022-09-01T11:35:09.143Z,85824.00
2022-09-01T11:36:10.344Z,81344.00
2022-09-01T11:37:09.115Z,80192.00
2022-09-01T11:38:09.158Z,78976.00
2022-09-01T11:39:09.081Z,77664.00
2022-09-01T11:40:09.149Z,76384.00
2022-09-01T11:41:09.080Z,74592.00
2022-09-01T11:42:09.053Z,72448.00
2022-09-01T11:43:12.525Z,69952.00
2022-09-01T11:44:09.773Z,70080.00
2022-09-01T11:45:12.827Z,73792.00
2022-09-01T11:46:10.108Z,70976.00
2022-09-01T11:47:13.636Z,70112.00
2022-09-01T11:48:09.994Z,70912.00
2022-09-01T11:49:09.009Z,40352.00
2022-09-01T11:50:08.973Z,73632.00
2022-09-01T11:51:08.974Z,21856.00
2022-09-01T11:52:09.957Z,21600.00
2022-09-01T11:53:09.101Z,35296.00
2022-09-01T11:54:09.288Z,81504.00
2022-09-01T11:55:08.938Z,26720.00
2022-09-01T11:56:08.930Z,21952.00
2022-09-01T11:57:08.924Z,20416.00
2022-09-01T11:58:08.891Z,20608.00
2022-09-01T11:59:08.889Z,94976.00
2022-09-01T12:00:08.905Z,96256.00
2022-09-01T12:01:09.002Z,97600.00
2022-09-01T12:02:09.431Z,101152.00
2022-09-01T12:03:09.563Z,102464.00
2022-09-01T12:04:09.285Z,98592.00
2022-09-01T12:05:08.850Z,99776.00
2022-09-01T12:06:08.869Z,94656.00
2022-09-01T12:07:10.856Z,97216.00
2022-09-01T12:08:08.825Z,54752.00
2022-09-01T12:09:08.781Z,74176.00
2022-09-01T12:10:08.823Z,26080.00
2022-09-01T12:11:09.258Z,28544.00
2022-09-01T12:12:09.527Z,28448.00
2022-09-01T12:13:08.786Z,63584.00
2022-09-01T12:14:11.361Z,75040.00
2022-09-01T12:15:08.723Z,51104.00
2022-09-01T12:16:21.114Z,32832.00
2022-09-01T12:17:09.764Z,28576.00
2022-09-01T12:18:08.695Z,47488.00
2022-09-01T12:19:08.753Z,64800.00
2022-09-01T12:20:09.118Z,33696.00
2022-09-01T12:21:09.725Z,22304.00
2022-09-01T12:22:09.762Z,29472.00
2022-09-01T12:23:08.651Z,39680.00
2022-09-01T12:24:08.636Z,60064.00
2022-09-01T12:25:08.624Z,59296.00
2022-09-01T12:26:08.635Z,66656.00
2022-09-01T12:27:08.600Z,72480.00
2022-09-01T12:28:11.110Z,71200.00
2022-09-01T12:29:08.732Z,80448.00
2022-09-01T12:30:08.945Z,79872.00
2022-09-01T12:31:09.246Z,73856.00
2022-09-01T12:32:08.587Z,71552.00
2022-09-01T12:33:24.406Z,78208.00
2022-09-01T12:34:09.548Z,21536.00
2022-09-01T12:35:11.510Z,26464.00
2022-09-01T12:36:08.523Z,22464.00
2022-09-01T12:37:08.540Z,22656.00
2022-09-01T12:38:09.722Z,24416.00
2022-09-01T12:39:09.869Z,26272.00
2022-09-01T12:40:09.214Z,24544.00
2022-09-01T12:41:08.558Z,25504.00
2022-09-01T12:42:08.469Z,26464.00
2022-09-01T12:43:08.439Z,25856.00
2022-09-01T12:44:08.465Z,22944.00
2022-09-01T12:45:09.049Z,22272.00